sensor_id;sensor_type;location;lat;lon;timestamp;noise_LAeq;noise_LA_min;noise_LA_max;noise_LA01;noise_LA95
60116;Laerm;62818;49.394;8.686;2023-03-24T00:00:33;69.02;44.54;80.46;;
60116;Laerm;62818;49.394;8.686;2023-03-24T00:01:33;69.04;44.47;79.85;;
60116;Laerm;62818;49.394;8.686;2023-03-24T00:02:34;69.69;44.31;83.24;;
60116;Laerm;62818;49.394;8.686;2023-03-24T00:03:36;69.07;44.47;81.72;;
60116;Laerm;62818;49.394;8.686;2023-03-24T00:04:37;69.22;45.14;81.60;;
60116;Laerm;62818;49.394;8.686;2023-03-24T00:05:41;69.72;44.23;82.42;;
60116;Laerm;62818;49.394;8.686;2023-03-24T00:06:43;69.28;44.69;82.68;;
60116;Laerm;62818;49.394;8.686;2023-03-24T00:07:45;68.97;44.69;80.40;;
60116;Laerm;62818;49.394;8.686;2023-03-24T00:08:46;68.74;44.43;80.57;;
60116;Laerm;62818;49.394;8.686;2023-03-24T00:09:47;69.83;44.27;82.03;;
60116;Laerm;62818;49.394;8.686;2023-03-24T00:10:47;69.81;44.73;82.17;;
60116;Laerm;62818;49.394;8.686;2023-03-24T00:11:48;69.01;44.43;80.62;;
60116;Laerm;62818;49.394;8.686;2023-03-24T00:12:50;69.43;44.35;82.34;;
60116;Laerm;62818;49.394;8.686;2023-03-24T00:13:50;50.95;44.51;64.19;;
60116;Laerm;62818;49.394;8.686;2023-03-24T00:14:51;69.03;44.58;80.02;;
60116;Laerm;62818;49.394;8.686;2023-03-24T00:15:53;69.77;44.23;82.52;;
60116;Laerm;62818;49.394;8.686;2023-03-24T00:16:55;69.73;44.35;82.64;;
60116;Laerm;62818;49.394;8.686;2023-03-24T00:17:57;68.65;43.72;79.45;;
60116;Laerm;62818;49.394;8.686;2023-03-24T00:18:58;69.56;44.11;81.27;;
60116;Laerm;62818;49.394;8.686;2023-03-24T00:19:58;70.12;44.43;82.94;;
60116;Laerm;62818;49.394;8.686;2023-03-24T00:20:59;69.19;44.62;81.23;;
60116;Laerm;62818;49.394;8.686;2023-03-24T00:21:59;69.42;44.07;81.33;;
60116;Laerm;62818;49.394;8.686;2023-03-24T00:23:00;68.56;44.51;79.75;;
60116;Laerm;62818;49.394;8.686;2023-03-24T00:24:00;69.23;43.86;81.66;;
60116;Laerm;62818;49.394;8.686;2023-03-24T00:25:02;70.15;44.47;83.00;;
60116;Laerm;62818;49.394;8.686;2023-03-24T00:26:08;69.74;44.62;82.27;;
60116;Laerm;62818;49.394;8.686;2023-03-24T00:27:12;68.82;45.48;80.98;;
60116;Laerm;62818;49.394;8.686;2023-03-24T00:28:14;69.33;44.23;81.33;;
60116;Laerm;62818;49.394;8.686;2023-03-24T00:29:15;69.05;44.19;80.07;;
60116;Laerm;62818;49.394;8.686;2023-03-24T00:30:17;70.20;44.23;83.40;;
60116;Laerm;62818;49.394;8.686;2023-03-24T00:31:18;68.77;44.07;79.54;;
60116;Laerm;62818;49.394;8.686;2023-03-24T00:32:19;69.72;43.80;82.25;;
60116;Laerm;62818;49.394;8.686;2023-03-24T00:33:20;69.97;43.99;83.01;;
60116;Laerm;62818;49.394;8.686;2023-03-24T00:34:21;69.44;44.31;81.92;;
60116;Laerm;62818;49.394;8.686;2023-03-24T00:35:22;69.61;43.77;83.51;;
60116;Laerm;62818;49.394;8.686;2023-03-24T00:36:25;70.10;44.19;82.25;;
60116;Laerm;62818;49.394;8.686;2023-03-24T00:37:28;70.53;44.15;83.68;;
60116;Laerm;62818;49.394;8.686;2023-03-24T00:38:29;69.66;45.33;81.57;;
60116;Laerm;62818;49.394;8.686;2023-03-24T00:39:29;69.58;44.90;80.35;;
60116;Laerm;62818;49.394;8.686;2023-03-24T00:40:30;70.08;44.19;82.92;;
60116;Laerm;62818;49.394;8.686;2023-03-24T00:41:31;70.08;44.54;80.60;;
60116;Laerm;62818;49.394;8.686;2023-03-24T00:42:35;69.68;44.49;83.53;;
60116;Laerm;62818;49.394;8.686;2023-03-24T00:43:36;68.99;44.39;79.60;;
60116;Laerm;62818;49.394;8.686;2023-03-24T00:44:37;68.73;43.94;80.78;;
60116;Laerm;62818;49.394;8.686;2023-03-24T00:45:38;69.07;44.27;80.59;;
60116;Laerm;62818;49.394;8.686;2023-03-24T00:46:50;68.19;44.43;79.62;;
60116;Laerm;62818;49.394;8.686;2023-03-24T00:47:54;68.53;44.27;82.55;;
60116;Laerm;62818;49.394;8.686;2023-03-24T00:49:01;69.96;43.99;82.46;;
60116;Laerm;62818;49.394;8.686;2023-03-24T00:50:05;69.69;44.83;81.99;;
60116;Laerm;62818;49.394;8.686;2023-03-24T00:51:07;70.80;44.80;83.34;;
60116;Laerm;62818;49.394;8.686;2023-03-24T00:52:21;69.57;44.23;83.04;;
60116;Laerm;62818;49.394;8.686;2023-03-24T00:53:23;68.97;43.90;81.42;;
60116;Laerm;62818;49.394;8.686;2023-03-24T00:54:25;69.60;43.81;83.19;;
60116;Laerm;62818;49.394;8.686;2023-03-24T00:55:27;69.37;43.81;82.20;;
60116;Laerm;62818;49.394;8.686;2023-03-24T00:56:30;69.21;43.90;80.17;;
60116;Laerm;62818;49.394;8.686;2023-03-24T00:57:32;69.71;44.62;81.55;;
60116;Laerm;62818;49.394;8.686;2023-03-24T00:58:35;69.10;44.27;82.56;;
60116;Laerm;62818;49.394;8.686;2023-03-24T00:59:36;69.04;43.90;80.70;;
60116;Laerm;62818;49.394;8.686;2023-03-24T01:00:41;69.45;44.23;82.66;;
60116;Laerm;62818;49.394;8.686;2023-03-24T01:01:42;69.53;44.54;81.19;;
60116;Laerm;62818;49.394;8.686;2023-03-24T01:02:43;69.96;44.11;82.92;;
60116;Laerm;62818;49.394;8.686;2023-03-24T01:03:45;69.42;44.19;80.77;;
60116;Laerm;62818;49.394;8.686;2023-03-24T01:04:59;68.92;44.31;80.58;;
60116;Laerm;62818;49.394;8.686;2023-03-24T01:06:02;70.52;44.39;83.59;;
60116;Laerm;62818;49.394;8.686;2023-03-24T01:07:07;69.31;44.07;81.04;;
60116;Laerm;62818;49.394;8.686;2023-03-24T01:08:10;68.38;43.85;79.21;;
60116;Laerm;62818;49.394;8.686;2023-03-24T01:09:10;70.32;43.99;83.43;;
60116;Laerm;62818;49.394;8.686;2023-03-24T01:10:13;69.26;43.63;81.54;;
60116;Laerm;62818;49.394;8.686;2023-03-24T01:11:15;69.42;43.86;81.90;;
60116;Laerm;62818;49.394;8.686;2023-03-24T01:12:17;49.27;44.03;68.57;;
60116;Laerm;62818;49.394;8.686;2023-03-24T01:13:20;45.21;44.07;46.48;;
60116;Laerm;62818;49.394;8.686;2023-03-24T01:14:21;71.28;44.27;82.86;;
60116;Laerm;62818;49.394;8.686;2023-03-24T01:15:28;70.19;44.23;81.88;;
60116;Laerm;62818;49.394;8.686;2023-03-24T01:16:28;69.55;44.23;82.19;;
60116;Laerm;62818;49.394;8.686;2023-03-24T01:17:29;70.37;44.47;83.37;;
60116;Laerm;62818;49.394;8.686;2023-03-24T01:18:31;69.82;44.69;81.26;;
60116;Laerm;62818;49.394;8.686;2023-03-24T01:19:31;69.86;45.66;82.25;;
60116;Laerm;62818;49.394;8.686;2023-03-24T01:20:32;69.24;44.76;81.26;;
60116;Laerm;62818;49.394;8.686;2023-03-24T01:21:32;69.48;44.58;82.78;;
60116;Laerm;62818;49.394;8.686;2023-03-24T01:22:34;68.91;44.43;82.20;;
60116;Laerm;62818;49.394;8.686;2023-03-24T01:23:38;69.58;44.15;82.37;;
60116;Laerm;62818;49.394;8.686;2023-03-24T01:24:39;69.52;44.54;82.39;;
60116;Laerm;62818;49.394;8.686;2023-03-24T01:25:40;69.24;44.15;80.12;;
60116;Laerm;62818;49.394;8.686;2023-03-24T01:26:44;68.63;44.01;79.69;;
60116;Laerm;62818;49.394;8.686;2023-03-24T01:27:47;69.30;44.27;81.57;;
60116;Laerm;62818;49.394;8.686;2023-03-24T01:28:48;69.05;45.83;82.08;;
60116;Laerm;62818;49.394;8.686;2023-03-24T01:29:48;70.10;47.34;81.79;;
60116;Laerm;62818;49.394;8.686;2023-03-24T01:30:52;69.09;45.42;81.11;;
60116;Laerm;62818;49.394;8.686;2023-03-24T01:31:52;69.28;45.20;80.29;;
60116;Laerm;62818;49.394;8.686;2023-03-24T01:32:53;69.46;44.23;80.64;;
60116;Laerm;62818;49.394;8.686;2023-03-24T01:33:54;51.12;44.23;68.76;;
60116;Laerm;62818;49.394;8.686;2023-03-24T01:34:55;69.05;44.51;80.23;;
60116;Laerm;62818;49.394;8.686;2023-03-24T01:35:55;69.57;44.03;81.74;;
60116;Laerm;62818;49.394;8.686;2023-03-24T01:36:56;70.22;44.39;83.26;;
60116;Laerm;62818;49.394;8.686;2023-03-24T01:37:58;70.33;44.47;83.37;;
60116;Laerm;62818;49.394;8.686;2023-03-24T01:38:59;69.07;44.73;82.68;;
60116;Laerm;62818;49.394;8.686;2023-03-24T01:40:00;68.77;43.90;82.50;;
60116;Laerm;62818;49.394;8.686;2023-03-24T01:41:03;69.46;44.31;81.13;;
60116;Laerm;62818;49.394;8.686;2023-03-24T01:42:04;69.00;43.63;82.78;;
60116;Laerm;62818;49.394;8.686;2023-03-24T01:43:06;70.02;44.11;82.96;;
60116;Laerm;62818;49.394;8.686;2023-03-24T01:46:39;69.29;44.35;81.07;;
60116;Laerm;62818;49.394;8.686;2023-03-24T01:47:39;69.68;44.35;80.28;;
60116;Laerm;62818;49.394;8.686;2023-03-24T01:48:56;68.64;44.27;80.28;;
60116;Laerm;62818;49.394;8.686;2023-03-24T01:50:00;68.48;44.58;81.39;;
60116;Laerm;62818;49.394;8.686;2023-03-24T01:51:14;69.77;44.76;82.83;;
60116;Laerm;62818;49.394;8.686;2023-03-24T01:52:30;68.14;44.15;82.32;;
60116;Laerm;62818;49.394;8.686;2023-03-24T01:53:33;69.20;44.03;80.59;;
60116;Laerm;62818;49.394;8.686;2023-03-24T01:55:02;68.21;44.07;80.67;;
60116;Laerm;62818;49.394;8.686;2023-03-24T01:56:09;68.87;44.31;81.43;;
60116;Laerm;62818;49.394;8.686;2023-03-24T01:58:30;69.83;44.15;83.48;;
60116;Laerm;62818;49.394;8.686;2023-03-24T01:59:37;68.64;44.03;80.05;;
60116;Laerm;62818;49.394;8.686;2023-03-24T02:00:39;69.69;43.77;83.45;;
60116;Laerm;62818;49.394;8.686;2023-03-24T02:01:41;69.43;44.80;82.61;;
60116;Laerm;62818;49.394;8.686;2023-03-24T02:02:48;69.38;44.43;82.25;;
60116;Laerm;62818;49.394;8.686;2023-03-24T02:03:55;69.31;44.03;83.32;;
60116;Laerm;62818;49.394;8.686;2023-03-24T02:05:01;70.02;44.76;83.94;;
60116;Laerm;62818;49.394;8.686;2023-03-24T02:06:04;69.42;44.73;82.98;;
60116;Laerm;62818;49.394;8.686;2023-03-24T02:07:19;68.45;44.34;80.06;;
60116;Laerm;62818;49.394;8.686;2023-03-24T02:08:32;68.71;44.15;83.41;;
60116;Laerm;62818;49.394;8.686;2023-03-24T02:09:34;69.77;44.23;82.87;;
60116;Laerm;62818;49.394;8.686;2023-03-24T02:10:36;69.29;44.07;81.17;;
60116;Laerm;62818;49.394;8.686;2023-03-24T02:11:39;69.16;44.15;82.43;;
60116;Laerm;62818;49.394;8.686;2023-03-24T02:12:42;69.31;44.80;82.25;;
60116;Laerm;62818;49.394;8.686;2023-03-24T02:13:43;69.69;44.39;82.74;;
60116;Laerm;62818;49.394;8.686;2023-03-24T02:14:44;69.32;44.27;80.37;;
60116;Laerm;62818;49.394;8.686;2023-03-24T02:16:02;51.10;44.27;68.21;;
60116;Laerm;62818;49.394;8.686;2023-03-24T02:29:28;67.67;44.15;80.54;;
60116;Laerm;62818;49.394;8.686;2023-03-24T02:32:43;67.33;44.39;80.11;;
60116;Laerm;62818;49.394;8.686;2023-03-24T02:34:39;66.90;44.76;79.41;;
60116;Laerm;62818;49.394;8.686;2023-03-24T02:39:56;67.33;43.94;81.21;;
60116;Laerm;62818;49.394;8.686;2023-03-24T02:41:30;67.45;43.81;80.73;;
60116;Laerm;62818;49.394;8.686;2023-03-24T02:44:23;68.43;44.39;83.33;;
60116;Laerm;62818;49.394;8.686;2023-03-24T02:46:10;66.78;44.27;80.28;;
60116;Laerm;62818;49.394;8.686;2023-03-24T02:47:45;67.16;44.31;80.04;;
60116;Laerm;62818;49.394;8.686;2023-03-24T02:49:27;67.67;44.39;83.34;;
60116;Laerm;62818;49.394;8.686;2023-03-24T02:52:17;67.49;44.43;80.03;;
60116;Laerm;62818;49.394;8.686;2023-03-24T02:53:37;69.11;44.35;82.63;;
60116;Laerm;62818;49.394;8.686;2023-03-24T02:55:09;67.40;44.51;80.25;;
60116;Laerm;62818;49.394;8.686;2023-03-24T02:58:04;67.47;44.69;80.11;;
60116;Laerm;62818;49.394;8.686;2023-03-24T02:59:18;68.93;44.97;82.50;;
60116;Laerm;62818;49.394;8.686;2023-03-24T03:00:46;67.96;45.01;82.89;;
60116;Laerm;62818;49.394;8.686;2023-03-24T03:02:22;67.55;44.58;80.12;;
60116;Laerm;62818;49.394;8.686;2023-03-24T03:03:41;68.27;44.23;80.14;;
60116;Laerm;62818;49.394;8.686;2023-03-24T03:04:53;68.83;44.58;80.60;;
60116;Laerm;62818;49.394;8.686;2023-03-24T03:06:01;69.85;45.45;83.37;;
60116;Laerm;62818;49.394;8.686;2023-03-24T03:07:06;68.72;44.73;80.23;;
60116;Laerm;62818;49.394;8.686;2023-03-24T03:08:15;68.75;44.69;80.58;;
60116;Laerm;62818;49.394;8.686;2023-03-24T03:09:20;69.04;44.35;81.74;;
60116;Laerm;62818;49.394;8.686;2023-03-24T03:10:28;68.84;44.15;80.11;;
60116;Laerm;62818;49.394;8.686;2023-03-24T03:11:31;68.98;43.94;80.38;;
60116;Laerm;62818;49.394;8.686;2023-03-24T03:12:35;69.13;44.43;79.96;;
60116;Laerm;62818;49.394;8.686;2023-03-24T03:13:45;68.77;44.97;80.18;;
60116;Laerm;62818;49.394;8.686;2023-03-24T03:14:55;68.87;44.42;82.42;;
60116;Laerm;62818;49.394;8.686;2023-03-24T03:16:06;70.22;44.31;83.62;;
60116;Laerm;62818;49.394;8.686;2023-03-24T03:17:32;68.04;44.07;82.19;;
60116;Laerm;62818;49.394;8.686;2023-03-24T03:18:57;67.88;44.39;82.45;;
60116;Laerm;62818;49.394;8.686;2023-03-24T03:20:17;68.67;44.47;81.83;;
60116;Laerm;62818;49.394;8.686;2023-03-24T03:21:24;69.09;44.43;81.50;;
60116;Laerm;62818;49.394;8.686;2023-03-24T03:22:37;68.31;44.69;79.88;;
60116;Laerm;62818;49.394;8.686;2023-03-24T03:23:53;68.80;44.43;82.26;;
60116;Laerm;62818;49.394;8.686;2023-03-24T03:24:59;68.77;44.31;80.07;;
60116;Laerm;62818;49.394;8.686;2023-03-24T03:26:08;68.35;44.35;78.62;;
60116;Laerm;62818;49.394;8.686;2023-03-24T03:27:19;68.81;44.62;80.06;;
60116;Laerm;62818;49.394;8.686;2023-03-24T03:28:26;68.80;44.31;79.27;;
60116;Laerm;62818;49.394;8.686;2023-03-24T03:29:36;68.79;44.43;81.18;;
60116;Laerm;62818;49.394;8.686;2023-03-24T03:30:53;67.62;44.11;79.81;;
60116;Laerm;62818;49.394;8.686;2023-03-24T03:32:02;69.49;44.51;82.68;;
60116;Laerm;62818;49.394;8.686;2023-03-24T03:33:45;67.50;44.47;82.27;;
60116;Laerm;62818;49.394;8.686;2023-03-24T03:35:10;67.53;43.99;79.72;;
60116;Laerm;62818;49.394;8.686;2023-03-24T03:36:34;67.91;44.39;82.17;;
60116;Laerm;62818;49.394;8.686;2023-03-24T03:39:28;68.06;44.23;81.95;;
60116;Laerm;62818;49.394;8.686;2023-03-24T03:40:41;68.54;45.04;80.76;;
60116;Laerm;62818;49.394;8.686;2023-03-24T03:41:42;69.90;44.58;83.53;;
60116;Laerm;62818;49.394;8.686;2023-03-24T03:42:43;69.70;44.54;81.40;;
60116;Laerm;62818;49.394;8.686;2023-03-24T03:43:47;69.17;44.90;79.75;;
60116;Laerm;62818;49.394;8.686;2023-03-24T03:44:49;68.80;44.58;79.62;;
60116;Laerm;62818;49.394;8.686;2023-03-24T03:45:50;69.86;45.72;83.08;;
60116;Laerm;62818;49.394;8.686;2023-03-24T03:46:51;69.33;46.20;82.24;;
60116;Laerm;62818;49.394;8.686;2023-03-24T03:47:52;52.47;44.62;68.76;;
60116;Laerm;62818;49.394;8.686;2023-03-24T03:48:53;69.50;45.01;82.58;;
60116;Laerm;62818;49.394;8.686;2023-03-24T03:49:53;69.65;44.82;80.54;;
60116;Laerm;62818;49.394;8.686;2023-03-24T03:50:55;69.42;45.23;80.69;;
60116;Laerm;62818;49.394;8.686;2023-03-24T03:51:55;68.91;45.04;79.77;;
60116;Laerm;62818;49.394;8.686;2023-03-24T03:52:56;68.99;45.04;80.60;;
60116;Laerm;62818;49.394;8.686;2023-03-24T03:54:02;69.49;44.87;82.72;;
60116;Laerm;62818;49.394;8.686;2023-03-24T03:55:06;68.74;45.04;80.32;;
60116;Laerm;62818;49.394;8.686;2023-03-24T03:56:08;69.18;45.30;82.72;;
60116;Laerm;62818;49.394;8.686;2023-03-24T03:57:12;69.93;45.20;82.60;;
60116;Laerm;62818;49.394;8.686;2023-03-24T03:58:13;69.52;44.83;82.92;;
60116;Laerm;62818;49.394;8.686;2023-03-24T04:00:27;69.86;44.90;81.83;;
60116;Laerm;62818;49.394;8.686;2023-03-24T04:01:33;70.43;45.39;83.35;;
60116;Laerm;62818;49.394;8.686;2023-03-24T04:05:34;68.70;44.97;79.93;;
60116;Laerm;62818;49.394;8.686;2023-03-24T04:07:22;68.14;45.39;83.42;;
60116;Laerm;62818;49.394;8.686;2023-03-24T04:11:34;68.48;45.20;83.13;;
60116;Laerm;62818;49.394;8.686;2023-03-24T04:20:15;68.31;45.04;84.01;;
60116;Laerm;62818;49.394;8.686;2023-03-24T04:23:07;67.93;45.11;79.86;;
60116;Laerm;62818;49.394;8.686;2023-03-24T04:29:38;68.81;46.28;83.95;;
60116;Laerm;62818;49.394;8.686;2023-03-24T04:30:53;70.14;46.15;82.59;;
60116;Laerm;62818;49.394;8.686;2023-03-24T04:32:18;68.72;45.63;81.77;;
60116;Laerm;62818;49.394;8.686;2023-03-24T04:34:37;69.55;46.25;83.29;;
60116;Laerm;62818;49.394;8.686;2023-03-24T04:35:48;69.43;45.66;81.70;;
60116;Laerm;62818;49.394;8.686;2023-03-24T04:36:58;69.65;46.43;83.17;;
60116;Laerm;62818;49.394;8.686;2023-03-24T04:38:08;71.29;45.86;83.31;;
60116;Laerm;62818;49.394;8.686;2023-03-24T04:39:24;68.73;46.33;81.69;;
60116;Laerm;62818;49.394;8.686;2023-03-24T04:40:30;69.06;46.66;82.22;;
60116;Laerm;62818;49.394;8.686;2023-03-24T04:41:33;70.00;46.43;83.03;;
60116;Laerm;62818;49.394;8.686;2023-03-24T04:42:44;70.01;47.61;83.07;;
60116;Laerm;62818;49.394;8.686;2023-03-24T04:43:47;69.61;46.28;83.33;;
60116;Laerm;62818;49.394;8.686;2023-03-24T04:44:48;70.10;46.25;83.56;;
60116;Laerm;62818;49.394;8.686;2023-03-24T04:45:54;69.50;46.18;83.42;;
60116;Laerm;62818;49.394;8.686;2023-03-24T04:46:59;68.69;45.69;80.07;;
60116;Laerm;62818;49.394;8.686;2023-03-24T04:48:04;69.81;45.57;83.27;;
60116;Laerm;62818;49.394;8.686;2023-03-24T04:49:08;69.21;46.07;80.38;;
60116;Laerm;62818;49.394;8.686;2023-03-24T04:50:10;70.47;45.80;83.22;;
60116;Laerm;62818;49.394;8.686;2023-03-24T04:51:11;69.07;46.35;80.99;;
60116;Laerm;62818;49.394;8.686;2023-03-24T04:52:12;70.06;45.83;82.13;;
60116;Laerm;62818;49.394;8.686;2023-03-24T04:53:13;71.07;45.54;83.14;;
60116;Laerm;62818;49.394;8.686;2023-03-24T04:54:13;69.52;46.57;81.46;;
60116;Laerm;62818;49.394;8.686;2023-03-24T04:55:29;68.98;46.28;80.89;;
60116;Laerm;62818;49.394;8.686;2023-03-24T04:56:42;68.75;47.14;79.96;;
60116;Laerm;62818;49.394;8.686;2023-03-24T04:57:45;71.19;45.75;83.49;;
60116;Laerm;62818;49.394;8.686;2023-03-24T04:58:45;69.52;45.72;81.57;;
60116;Laerm;62818;49.394;8.686;2023-03-24T04:59:46;71.50;46.43;83.47;;
60116;Laerm;62818;49.394;8.686;2023-03-24T05:00:47;69.86;46.13;82.26;;
60116;Laerm;62818;49.394;8.686;2023-03-24T05:01:47;70.62;46.13;82.75;;
60116;Laerm;62818;49.394;8.686;2023-03-24T05:02:51;71.32;49.69;83.21;;
60116;Laerm;62818;49.394;8.686;2023-03-24T05:03:51;71.08;45.75;83.17;;
60116;Laerm;62818;49.394;8.686;2023-03-24T05:04:52;69.88;46.57;81.79;;
60116;Laerm;62818;49.394;8.686;2023-03-24T05:05:53;70.83;47.48;83.56;;
60116;Laerm;62818;49.394;8.686;2023-03-24T05:06:54;71.20;48.16;83.09;;
60116;Laerm;62818;49.394;8.686;2023-03-24T05:07:54;69.50;47.42;81.23;;
60116;Laerm;62818;49.394;8.686;2023-03-24T05:08:56;57.31;47.96;76.93;;
60116;Laerm;62818;49.394;8.686;2023-03-24T05:09:58;73.64;50.23;83.59;;
60116;Laerm;62818;49.394;8.686;2023-03-24T05:10:58;71.40;45.94;82.81;;
60116;Laerm;62818;49.394;8.686;2023-03-24T05:11:59;71.19;46.66;83.17;;
60116;Laerm;62818;49.394;8.686;2023-03-24T05:13:01;71.93;49.00;82.93;;
60116;Laerm;62818;49.394;8.686;2023-03-24T05:14:01;71.32;48.58;83.11;;
60116;Laerm;62818;49.394;8.686;2023-03-24T05:15:02;70.63;47.95;82.42;;
60116;Laerm;62818;49.394;8.686;2023-03-24T05:16:03;70.94;47.72;82.23;;
60116;Laerm;62818;49.394;8.686;2023-03-24T05:17:04;72.12;46.40;83.36;;
60116;Laerm;62818;49.394;8.686;2023-03-24T05:18:05;71.58;47.79;83.04;;
60116;Laerm;62818;49.394;8.686;2023-03-24T05:19:07;69.27;48.67;81.01;;
60116;Laerm;62818;49.394;8.686;2023-03-24T05:20:08;70.27;48.74;82.81;;
60116;Laerm;62818;49.394;8.686;2023-03-24T05:21:10;70.78;50.45;82.92;;
60116;Laerm;62818;49.394;8.686;2023-03-24T05:22:10;71.77;50.43;82.92;;
60116;Laerm;62818;49.394;8.686;2023-03-24T05:23:11;71.07;51.72;83.26;;
60116;Laerm;62818;49.394;8.686;2023-03-24T05:24:11;71.81;50.44;83.62;;
60116;Laerm;62818;49.394;8.686;2023-03-24T05:25:12;73.24;49.28;83.36;;
60116;Laerm;62818;49.394;8.686;2023-03-24T05:26:13;70.27;53.08;83.07;;
60116;Laerm;62818;49.394;8.686;2023-03-24T05:27:13;71.97;50.31;83.54;;
60116;Laerm;62818;49.394;8.686;2023-03-24T05:28:14;70.90;51.66;83.58;;
60116;Laerm;62818;49.394;8.686;2023-03-24T05:29:14;71.50;56.08;83.78;;
60116;Laerm;62818;49.394;8.686;2023-03-24T05:30:16;71.53;54.65;82.82;;
60116;Laerm;62818;49.394;8.686;2023-03-24T05:31:16;71.78;54.18;83.31;;
60116;Laerm;62818;49.394;8.686;2023-03-24T05:32:17;71.28;53.94;83.38;;
60116;Laerm;62818;49.394;8.686;2023-03-24T05:33:17;71.25;51.31;83.31;;
60116;Laerm;62818;49.394;8.686;2023-03-24T05:34:18;71.38;49.91;83.22;;
60116;Laerm;62818;49.394;8.686;2023-03-24T05:35:21;72.15;56.35;83.21;;
60116;Laerm;62818;49.394;8.686;2023-03-24T05:36:22;72.58;49.75;83.12;;
60116;Laerm;62818;49.394;8.686;2023-03-24T05:37:22;73.14;49.52;83.41;;
60116;Laerm;62818;49.394;8.686;2023-03-24T05:38:23;73.45;49.63;83.43;;
60116;Laerm;62818;49.394;8.686;2023-03-24T05:39:23;72.48;48.16;83.29;;
60116;Laerm;62818;49.394;8.686;2023-03-24T05:40:24;71.04;47.67;82.83;;
60116;Laerm;62818;49.394;8.686;2023-03-24T05:41:24;72.11;48.29;83.07;;
60116;Laerm;62818;49.394;8.686;2023-03-24T05:42:25;72.80;49.59;83.82;;
60116;Laerm;62818;49.394;8.686;2023-03-24T05:43:26;71.23;46.71;83.08;;
60116;Laerm;62818;49.394;8.686;2023-03-24T05:44:26;70.54;50.30;82.80;;
60116;Laerm;62818;49.394;8.686;2023-03-24T05:45:27;72.24;47.42;83.45;;
60116;Laerm;62818;49.394;8.686;2023-03-24T05:46:28;71.25;47.08;83.01;;
60116;Laerm;62818;49.394;8.686;2023-03-24T05:47:29;74.20;54.41;83.14;;
60116;Laerm;62818;49.394;8.686;2023-03-24T05:48:30;73.40;48.08;82.69;;
60116;Laerm;62818;49.394;8.686;2023-03-24T05:49:30;73.11;46.76;82.78;;
60116;Laerm;62818;49.394;8.686;2023-03-24T05:50:31;73.32;46.95;83.16;;
60116;Laerm;62818;49.394;8.686;2023-03-24T05:51:32;73.69;47.48;83.06;;
60116;Laerm;62818;49.394;8.686;2023-03-24T05:52:33;72.26;47.44;82.91;;
60116;Laerm;62818;49.394;8.686;2023-03-24T05:53:35;73.87;49.29;82.77;;
60116;Laerm;62818;49.394;8.686;2023-03-24T05:54:36;73.86;48.87;82.87;;
60116;Laerm;62818;49.394;8.686;2023-03-24T05:55:38;72.40;46.78;82.68;;
60116;Laerm;62818;49.394;8.686;2023-03-24T05:56:39;73.76;46.64;82.98;;
60116;Laerm;62818;49.394;8.686;2023-03-24T05:57:39;73.40;47.96;82.87;;
60116;Laerm;62818;49.394;8.686;2023-03-24T05:58:40;73.36;49.94;82.94;;
60116;Laerm;62818;49.394;8.686;2023-03-24T05:59:44;72.39;47.20;82.91;;
60116;Laerm;62818;49.394;8.686;2023-03-24T06:00:45;74.01;48.21;82.98;;
60116;Laerm;62818;49.394;8.686;2023-03-24T06:01:46;72.82;47.70;82.95;;
60116;Laerm;62818;49.394;8.686;2023-03-24T06:02:47;72.99;48.02;82.60;;
60116;Laerm;62818;49.394;8.686;2023-03-24T06:03:48;73.34;52.14;82.83;;
60116;Laerm;62818;49.394;8.686;2023-03-24T06:04:49;73.85;47.08;82.64;;
60116;Laerm;62818;49.394;8.686;2023-03-24T06:05:50;73.65;47.79;82.39;;
60116;Laerm;62818;49.394;8.686;2023-03-24T06:06:52;73.11;53.97;82.61;;
60116;Laerm;62818;49.394;8.686;2023-03-24T06:07:55;73.83;48.20;82.78;;
60116;Laerm;62818;49.394;8.686;2023-03-24T06:08:57;73.61;48.05;82.29;;
60116;Laerm;62818;49.394;8.686;2023-03-24T06:10:01;73.38;51.20;82.29;;
60116;Laerm;62818;49.394;8.686;2023-03-24T06:11:03;73.80;50.44;83.16;;
60116;Laerm;62818;49.394;8.686;2023-03-24T06:12:04;72.04;47.12;82.40;;
60116;Laerm;62818;49.394;8.686;2023-03-24T06:13:05;59.67;47.88;68.31;;
60116;Laerm;62818;49.394;8.686;2023-03-24T06:14:07;58.64;47.32;65.90;;
60116;Laerm;62818;49.394;8.686;2023-03-24T06:15:09;74.29;47.95;82.50;;
60116;Laerm;62818;49.394;8.686;2023-03-24T06:16:10;58.73;47.30;70.02;;
60116;Laerm;62818;49.394;8.686;2023-03-24T06:17:10;74.29;52.04;82.42;;
60116;Laerm;62818;49.394;8.686;2023-03-24T06:18:14;74.06;48.49;81.85;;
60116;Laerm;62818;49.394;8.686;2023-03-24T06:19:16;74.04;52.39;82.00;;
60116;Laerm;62818;49.394;8.686;2023-03-24T06:20:17;73.54;53.06;82.33;;
60116;Laerm;62818;49.394;8.686;2023-03-24T06:21:19;73.43;48.60;82.43;;
60116;Laerm;62818;49.394;8.686;2023-03-24T06:22:20;72.91;48.21;82.12;;
60116;Laerm;62818;49.394;8.686;2023-03-24T06:23:22;73.60;53.83;81.72;;
60116;Laerm;62818;49.394;8.686;2023-03-24T06:24:23;72.78;50.26;81.79;;
60116;Laerm;62818;49.394;8.686;2023-03-24T06:25:23;72.61;49.20;82.06;;
60116;Laerm;62818;49.394;8.686;2023-03-24T06:26:27;72.46;53.55;81.76;;
60116;Laerm;62818;49.394;8.686;2023-03-24T06:27:30;73.63;48.58;81.61;;
60116;Laerm;62818;49.394;8.686;2023-03-24T06:28:30;73.33;49.21;82.24;;
60116;Laerm;62818;49.394;8.686;2023-03-24T06:29:34;73.13;53.91;82.29;;
60116;Laerm;62818;49.394;8.686;2023-03-24T06:30:35;73.90;51.02;82.54;;
60116;Laerm;62818;49.394;8.686;2023-03-24T06:31:36;74.28;50.54;82.64;;
60116;Laerm;62818;49.394;8.686;2023-03-24T06:32:37;73.85;52.96;82.64;;
60116;Laerm;62818;49.394;8.686;2023-03-24T06:33:37;74.46;51.29;82.45;;
60116;Laerm;62818;49.394;8.686;2023-03-24T06:34:38;73.46;52.47;82.92;;
60116;Laerm;62818;49.394;8.686;2023-03-24T06:35:40;73.39;48.54;82.50;;
60116;Laerm;62818;49.394;8.686;2023-03-24T06:36:40;73.87;52.81;82.18;;
60116;Laerm;62818;49.394;8.686;2023-03-24T06:37:41;73.50;50.01;82.99;;
60116;Laerm;62818;49.394;8.686;2023-03-24T06:38:42;73.64;48.63;82.47;;
60116;Laerm;62818;49.394;8.686;2023-03-24T06:39:44;73.85;50.66;82.41;;
60116;Laerm;62818;49.394;8.686;2023-03-24T06:40:44;58.29;48.99;66.13;;
60116;Laerm;62818;49.394;8.686;2023-03-24T06:41:45;74.39;50.01;82.58;;
60116;Laerm;62818;49.394;8.686;2023-03-24T06:42:46;74.30;53.58;82.43;;
60116;Laerm;62818;49.394;8.686;2023-03-24T06:43:48;74.19;49.26;82.30;;
60116;Laerm;62818;49.394;8.686;2023-03-24T06:44:49;74.22;48.42;82.68;;
60116;Laerm;62818;49.394;8.686;2023-03-24T06:45:50;73.43;54.94;82.62;;
60116;Laerm;62818;49.394;8.686;2023-03-24T06:46:51;73.75;49.95;82.86;;
60116;Laerm;62818;49.394;8.686;2023-03-24T06:47:52;74.44;50.10;82.90;;
60116;Laerm;62818;49.394;8.686;2023-03-24T06:48:56;73.70;56.55;82.55;;
60116;Laerm;62818;49.394;8.686;2023-03-24T06:49:56;74.18;48.64;82.59;;
60116;Laerm;62818;49.394;8.686;2023-03-24T06:50:56;73.95;49.28;82.55;;
60116;Laerm;62818;49.394;8.686;2023-03-24T06:51:57;74.06;57.04;82.64;;
60116;Laerm;62818;49.394;8.686;2023-03-24T06:52:59;73.89;50.44;82.40;;
60116;Laerm;62818;49.394;8.686;2023-03-24T06:54:00;73.66;49.02;82.07;;
60116;Laerm;62818;49.394;8.686;2023-03-24T06:55:01;73.39;56.10;82.16;;